7N0

New Orleans Downtown Heliport

New Orleans, Louisiana, USA
METAR K7N0 240456Z AUTO 04007KT 10SM OVC050 19/17 A3012 RMK AO2 SLP201 T01890167 402110189
Observed Flight Rules
Oct-24 @ 04:56 UTC (49 minutes ago) Visual Flight Rules
Wind Visibility Clouds
40° at 7 knots 10 miles
  • Overcast at 5,000' AGL
Temperatures Readings
Current 19°C / 66°F
Dewpoint 17°C / 63°F
Humidity 88%
Altimeter 30.12" Hg
Pressure 1020.1 hPa
Elevation 0
METAR K7N0 240456Z AUTO 04007KT 10SM OVC050 19/17 A3012 RMK AO2 SLP201 T01890167 402110189
Observed Flight Rules
Oct-24 @ 04:56 UTC
(49 minutes ago)
VFR
Wind Visibility
40° at 7 knots 10 miles
Clouds
  • Overcast at 5,000' AGL
Temperature Dewpoint
19°C / 66°F 17°C / 63°F
Humidity Altimeter Pressure
88% 30.12" Hg 1020.1 hPa